Time;durP1;ratioP1;P1;durP2;ratioP2;P2;SDS_P1;SDS_P2;PMS_P1;PMS_P2;Temp;Humidity;BMP_temperature;BMP_pressure;BME280_temperature;BME280_humidity;BME280_pressure;Samples;Min_cycle;Max_cycle;Signal;HPM_P1;HPM_P2
2021/04/12 00:02:32;;;;;;;23.00;6.88;;;;;;;-1.45;91.05;102207.72;4966644;28;20478;-64
2021/04/12 00:05:25;;;;;;;21.98;7.00;;;;;;;-1.47;90.96;102205.03;4968358;28;20047;-63
2021/04/12 00:08:10;;;;;;;23.05;7.40;;;;;;;-1.45;90.42;102206.03;4970684;28;20146;-64
2021/04/12 00:10:54;;;;;;;21.15;6.82;;;;;;;-1.48;91.56;102211.00;4974861;28;20620;-63
2021/04/12 00:13:22;;;;;;;21.80;7.13;;;;;;;-1.52;93.19;102208.94;4966126;28;20049;-64
2021/04/12 00:15:54;;;;;;;23.70;7.30;;;;;;;-1.53;94.54;102204.56;4974525;28;20139;-63
2021/04/12 00:18:28;;;;;;;23.45;7.25;;;;;;;-1.53;93.88;102214.94;4994321;28;20067;-64
2021/04/12 00:21:10;;;;;;;22.30;7.03;;;;;;;-1.54;92.24;102204.44;5132448;27;20075;-64
2021/04/12 00:23:57;;;;;;;23.65;7.32;;;;;;;-1.55;92.85;102203.53;5131866;27;20090;-64
2021/04/12 00:26:34;;;;;;;20.92;6.75;;;;;;;-1.60;92.43;102221.34;5134371;27;20347;-64
2021/04/12 00:29:07;;;;;;;21.63;7.38;;;;;;;-1.61;95.11;102232.50;5133771;27;20106;-64
2021/04/12 00:31:46;;;;;;;22.40;7.25;;;;;;;-1.61;95.28;102224.72;5132529;27;20039;-64
2021/04/12 00:34:22;;;;;;;22.73;7.65;;;;;;;-1.65;94.81;102229.56;5132593;27;20031;-64
2021/04/12 00:36:56;;;;;;;23.60;7.60;;;;;;;-1.68;95.03;102227.63;5133664;27;20039;-64
2021/04/12 00:39:40;;;;;;;25.25;7.68;;;;;;;-1.68;93.63;102234.53;5133763;27;20055;-64
2021/04/12 00:42:24;;;;;;;23.95;8.13;;;;;;;-1.65;93.00;102240.84;5132765;27;20113;-64
2021/04/12 00:45:10;;;;;;;24.92;7.55;;;;;;;-1.66;95.09;102235.53;5132600;27;20046;-64
2021/04/12 00:47:54;;;;;;;23.50;7.57;;;;;;;-1.71;95.35;102235.19;5132196;27;20027;-64
2021/04/12 00:50:25;;;;;;;24.98;7.80;;;;;;;-1.74;94.71;102231.47;5133493;27;20346;-64
2021/04/12 00:53:10;;;;;;;22.23;7.40;;;;;;;-1.78;94.85;102235.50;5133479;27;20070;-64
2021/04/12 00:55:44;;;;;;;24.48;7.75;;;;;;;-1.82;94.53;102234.38;5132306;27;20115;-63
2021/04/12 00:58:14;;;;;;;23.27;7.57;;;;;;;-1.84;94.94;102241.13;5132888;27;20393;-64
2021/04/12 01:01:11;;;;;;;23.05;7.85;;;;;;;-1.89;95.15;102241.56;5131769;27;20466;-64
2021/04/12 01:04:04;;;;;;;24.20;7.68;;;;;;;-1.93;96.33;102246.50;5066684;28;20040;-63
2021/04/12 01:07:03;;;;;;;22.17;7.25;;;;;;;-1.92;93.82;102244.84;5068074;28;20060;-64
2021/04/12 01:09:46;;;;;;;22.73;8.10;;;;;;;-1.95;97.55;102244.59;5063883;28;20040;-64
2021/04/12 01:12:53;;;;;;;22.40;7.47;;;;;;;-1.94;96.13;102246.38;5066862;28;20041;-64
2021/04/12 01:15:45;;;;;;;23.50;7.65;;;;;;;-1.95;95.96;102244.59;5063357;28;20049;-64
2021/04/12 01:18:14;;;;;;;25.70;8.40;;;;;;;-1.93;95.81;102245.59;5062451;28;20037;-64
2021/04/12 01:20:54;;;;;;;24.45;8.05;;;;;;;-1.90;96.76;102240.66;5065703;28;20486;-64
2021/04/12 01:23:43;;;;;;;23.10;7.78;;;;;;;-1.89;95.47;102254.50;5065009;28;20044;-64
2021/04/12 01:26:30;;;;;;;23.15;8.50;;;;;;;-1.86;95.77;102257.38;5063735;28;20033;-64
2021/04/12 01:29:35;;;;;;;23.35;8.25;;;;;;;-1.89;95.08;102251.91;5064573;28;20515;-64
2021/04/12 01:32:44;;;;;;;23.83;7.88;;;;;;;-1.93;94.87;102251.69;4990083;28;20612;-64
2021/04/12 01:35:40;;;;;;;24.50;8.60;;;;;;;-1.96;95.90;102253.16;4913488;29;20045;-64
2021/04/12 01:38:27;;;;;;;23.50;7.88;;;;;;;-2.02;96.04;102256.16;4914873;29;20056;-64
2021/04/12 01:40:55;;;;;;;24.98;8.63;;;;;;;-2.04;97.52;102267.19;4961860;28;20039;-64
2021/04/12 01:43:56;;;;;;;25.63;8.68;;;;;;;-2.08;98.34;102259.97;4970770;28;20575;-64
2021/04/12 01:46:28;;;;;;;23.02;8.00;;;;;;;-2.15;97.99;102256.91;4970406;28;20093;-64
2021/04/12 01:49:03;;;;;;;24.15;8.18;;;;;;;-2.19;98.47;102262.63;4970736;28;20521;-64
2021/04/12 01:52:13;;;;;;;24.80;8.23;;;;;;;-2.20;97.57;102265.09;4973001;28;20035;-64
2021/04/12 01:55:09;;;;;;;21.58;8.00;;;;;;;-2.21;97.52;102271.97;4972583;28;20044;-64
2021/04/12 01:58:21;;;;;;;24.50;8.80;;;;;;;-2.22;98.31;102277.91;4972880;28;20037;-64
2021/04/12 02:00:49;;;;;;;24.65;8.30;;;;;;;-2.20;97.68;102276.38;4970178;28;20512;-64
2021/04/12 02:03:20;;;;;;;24.60;8.60;;;;;;;-2.16;98.03;102281.00;4976368;28;20038;-64
2021/04/12 02:06:02;;;;;;;25.60;8.73;;;;;;;-2.09;98.59;102277.22;4970227;28;20233;-64
2021/04/12 02:08:42;;;;;;;24.63;8.82;;;;;;;-2.04;97.24;102272.38;4992811;28;20045;-64
2021/04/12 02:11:14;;;;;;;23.58;8.25;;;;;;;-2.05;96.38;102281.84;5076149;28;20155;-64
2021/04/12 02:14:05;;;;;;;23.42;8.45;;;;;;;-2.09;96.88;102277.22;5132279;28;20023;-64
2021/04/12 02:16:42;;;;;;;22.77;8.38;;;;;;;-2.12;97.44;102279.56;5066747;28;20047;-64
2021/04/12 02:19:19;;;;;;;24.60;9.07;;;;;;;-2.14;98.59;102289.81;5066394;28;20441;-64
2021/04/12 02:22:15;;;;;;;24.92;9.10;;;;;;;-2.18;100.00;102298.13;5062616;28;20153;-64
2021/04/12 02:25:23;;;;;;;24.67;9.32;;;;;;;-2.24;100.00;102295.06;5063665;28;20064;-64
2021/04/12 02:27:54;;;;;;;22.25;8.38;;;;;;;-2.22;100.00;102296.06;5066173;28;20049;-64
2021/04/12 02:30:28;;;;;;;24.77;8.85;;;;;;;-2.19;100.00;102295.41;5064300;28;20029;-64
2021/04/12 02:33:16;;;;;;;23.38;9.38;;;;;;;-2.18;100.00;102300.72;5062315;28;20020;-64
2021/04/12 02:35:42;;;;;;;25.00;8.98;;;;;;;-2.16;100.00;102312.09;5004571;28;20497;-64
2021/04/12 02:38:30;;;;;;;24.00;8.88;;;;;;;-2.16;100.00;102314.69;5000730;28;20042;-64
2021/04/12 02:41:16;;;;;;;23.65;8.65;;;;;;;-2.18;100.00;102312.78;5004240;28;20038;-64
2021/04/12 02:44:03;;;;;;;26.95;9.45;;;;;;;-2.18;100.00;102321.44;4999949;28;20030;-66
2021/04/12 02:47:06;;;;;;;25.83;9.20;;;;;;;-2.21;99.50;102315.09;4998399;28;20034;-64
2021/04/12 02:50:15;;;;;;;24.08;8.68;;;;;;;-2.25;99.41;102315.66;5003821;28;20034;-64
2021/04/12 02:53:18;;;;;;;25.27;9.15;;;;;;;-2.33;100.00;102320.19;5002018;28;20076;-65
2021/04/12 02:55:46;;;;;;;23.47;8.97;;;;;;;-2.34;100.00;102315.81;5034032;28;20087;-65
2021/04/12 02:58:44;;;;;;;24.20;9.25;;;;;;;-2.39;100.00;102319.72;5044854;28;20045;-65
2021/04/12 03:01:36;;;;;;;24.85;9.68;;;;;;;-2.38;100.00;102324.13;4994319;28;20042;-64
2021/04/12 03:04:10;;;;;;;26.80;9.95;;;;;;;-2.35;100.00;102330.44;4996147;28;20437;-64
2021/04/12 03:07:09;;;;;;;25.45;9.20;;;;;;;-2.27;100.00;102333.69;4995461;28;20046;-64
2021/04/12 03:09:59;;;;;;;25.42;10.18;;;;;;;-2.13;100.00;102335.66;4990338;28;20034;-65
2021/04/12 03:12:44;;;;;;;23.95;9.93;;;;;;;-2.01;100.00;102338.34;5006686;28;20034;-64
2021/04/12 03:15:31;;;;;;;24.58;9.35;;;;;;;-1.94;100.00;102331.94;5030092;28;20548;-64
2021/04/12 03:18:15;;;;;;;24.73;9.57;;;;;;;-1.86;100.00;102329.97;5031065;28;20052;-64
2021/04/12 03:21:06;;;;;;;24.30;9.43;;;;;;;-1.83;100.00;102332.78;5031503;28;20029;-64
2021/04/12 03:23:45;;;;;;;24.98;9.70;;;;;;;-1.78;100.00;102334.97;5031711;28;20037;-64
2021/04/12 03:26:27;;;;;;;25.77;10.40;;;;;;;-1.71;100.00;102336.31;5031504;28;20048;-64
2021/04/12 03:29:01;;;;;;;24.02;10.07;;;;;;;-1.64;100.00;102332.53;5039912;28;20059;-64
2021/04/12 03:31:57;;;;;;;24.15;9.98;;;;;;;-1.54;100.00;102337.66;5053831;28;20059;-64
2021/04/12 03:34:49;;;;;;;23.90;9.68;;;;;;;-1.46;100.00;102343.41;5071153;28;20033;-65
2021/04/12 03:37:55;;;;;;;26.20;10.30;;;;;;;-1.43;100.00;102343.66;5078840;27;20050;-64
2021/04/12 03:40:32;;;;;;;26.83;10.40;;;;;;;-1.38;100.00;102344.91;5091168;28;20054;-64
2021/04/12 03:43:20;;;;;;;27.80;10.48;;;;;;;-1.26;100.00;102342.34;5090749;28;20024;-64
2021/04/12 03:45:54;;;;;;;24.77;9.65;;;;;;;-1.15;100.00;102351.88;5090186;28;20044;-64
2021/04/12 03:48:38;;;;;;;26.02;11.20;;;;;;;-1.14;100.00;102358.84;5090401;28;20036;-64
2021/04/12 03:51:21;;;;;;;24.20;10.57;;;;;;;-1.13;100.00;102354.56;5089098;28;20086;-64
2021/04/12 03:54:11;;;;;;;24.05;9.85;;;;;;;-1.09;100.00;102356.63;5090125;28;20044;-63
2021/04/12 03:56:56;;;;;;;24.92;10.07;;;;;;;-1.01;100.00;102364.97;5090334;28;20047;-64
2021/04/12 04:00:12;;;;;;;25.67;11.52;;;;;;;-1.09;100.00;102361.81;5089549;28;20423;-64
2021/04/12 04:02:56;;;;;;;26.50;11.75;;;;;;;-1.12;100.00;102375.47;5089933;28;20383;-64
2021/04/12 04:05:52;;;;;;;26.05;11.82;;;;;;;-1.19;100.00;102365.41;5090302;28;20040;-64
2021/04/12 04:08:37;;;;;;;25.95;11.25;;;;;;;-1.26;100.00;102369.19;5090762;28;20215;-64
2021/04/12 04:11:02;;;;;;;27.88;11.80;;;;;;;-1.36;100.00;102383.97;5087309;28;20437;-63
2021/04/12 04:13:36;;;;;;;26.58;11.50;;;;;;;-1.43;100.00;102370.53;5090457;28;20061;-63
2021/04/12 04:16:27;;;;;;;25.25;12.10;;;;;;;-1.51;100.00;102373.31;5092352;27;20028;-63
2021/04/12 04:19:25;;;;;;;25.88;11.40;;;;;;;-1.56;100.00;102369.44;5134061;27;20171;-64
2021/04/12 04:22:33;;;;;;;27.27;12.18;;;;;;;-1.61;100.00;102371.66;5134009;27;20030;-63
2021/04/12 04:25:11;;;;;;;26.48;12.13;;;;;;;-1.66;100.00;102376.50;5090019;28;20513;-64
2021/04/12 04:27:48;;;;;;;26.58;11.82;;;;;;;-1.70;100.00;102377.03;5090404;28;20043;-63
2021/04/12 04:30:23;;;;;;;26.15;11.63;;;;;;;-1.74;100.00;102371.50;5090475;28;20059;-64
2021/04/12 04:33:04;;;;;;;24.75;11.45;;;;;;;-1.74;100.00;102375.00;5090807;28;20139;-64
2021/04/12 04:36:00;;;;;;;28.33;13.35;;;;;;;-1.70;100.00;102383.91;5088320;28;20386;-64
2021/04/12 04:39:04;;;;;;;27.05;13.30;;;;;;;-1.67;100.00;102384.16;5089862;28;20147;-64
2021/04/12 04:41:47;;;;;;;;;;;;;;;-1.64;100.00;102376.63;5091004;28;20127;-63
2021/04/12 04:44:47;;;;;;;29.80;13.02;;;;;;;-1.56;100.00;102379.81;5089256;28;20329;-64
2021/04/12 04:47:44;;;;;;;28.42;13.65;;;;;;;-1.53;100.00;102387.81;5087780;28;20040;-63
2021/04/12 04:50:23;;;;;;;27.50;13.23;;;;;;;-1.52;100.00;102382.75;5087128;28;20040;-64
2021/04/12 04:53:14;;;;;;;27.05;13.20;;;;;;;-1.52;100.00;102380.16;5073314;28;20453;-63
2021/04/12 04:56:01;;;;;;;27.02;13.15;;;;;;;-1.51;100.00;102386.28;5090556;28;20496;-63
2021/04/12 04:59:09;;;;;;;29.35;14.73;;;;;;;-1.50;100.00;102386.38;5089930;28;20036;-63
2021/04/12 05:02:01;;;;;;;29.90;14.25;;;;;;;-1.48;100.00;102395.19;5083530;27;20034;-64
2021/04/12 05:05:01;;;;;;;28.73;13.30;;;;;;;-1.49;100.00;102390.78;5132612;27;20053;-62
2021/04/12 05:07:27;;;;;;;28.70;13.20;;;;;;;-1.46;100.00;102397.91;5049062;28;20129;-63
2021/04/12 05:10:10;;;;;;;27.70;13.15;;;;;;;-1.44;100.00;102399.84;5049462;28;20689;-63
2021/04/12 05:12:58;;;;;;;28.80;13.02;;;;;;;-1.39;100.00;102402.78;5048180;28;20419;-64
2021/04/12 05:15:36;;;;;;;26.75;12.85;;;;;;;-1.35;100.00;102403.94;5048476;28;20029;-63
2021/04/12 05:18:22;;;;;;;27.52;13.02;;;;;;;-1.31;100.00;102406.88;5049186;28;20056;-64
2021/04/12 05:21:06;;;;;;;27.13;12.48;;;;;;;-1.30;100.00;102411.25;5049273;28;20144;-64
2021/04/12 05:23:46;;;;;;;26.67;12.88;;;;;;;-1.25;100.00;102419.44;5049402;28;20127;-63
2021/04/12 05:26:29;;;;;;;27.65;12.80;;;;;;;-1.22;100.00;102411.88;5049220;28;20032;-64
2021/04/12 05:29:00;;;;;;;26.33;12.30;;;;;;;-1.18;100.00;102416.53;5047771;28;20149;-65
2021/04/12 05:31:34;;;;;;;27.02;12.57;;;;;;;-1.12;100.00;102424.78;5049294;28;20476;-64
2021/04/12 05:34:30;;;;;;;26.95;11.75;;;;;;;-1.07;100.00;102419.94;5032621;28;20391;-64
2021/04/12 05:37:28;;;;;;;26.27;11.75;;;;;;;-0.97;100.00;102429.34;5048254;28;20049;-64
2021/04/12 05:40:12;;;;;;;25.60;11.70;;;;;;;-0.93;100.00;102437.47;5047951;28;20179;-64
2021/04/12 05:43:01;;;;;;;25.70;11.73;;;;;;;-0.90;100.00;102436.81;5046613;28;20037;-64
2021/04/12 05:45:38;;;;;;;24.63;10.75;;;;;;;-0.88;100.00;102445.59;5132205;27;20492;-64
2021/04/12 05:48:29;;;;;;;25.42;11.70;;;;;;;-0.88;100.00;102436.13;5130291;27;20037;-63
2021/04/12 05:51:27;;;;;;;25.77;11.07;;;;;;;-0.85;100.00;102456.22;5131842;27;20405;-64
2021/04/12 05:54:34;;;;;;;26.10;11.00;;;;;;;-0.82;100.00;102450.38;5131474;27;20107;-64
2021/04/12 05:57:30;;;;;;;26.30;11.98;;;;;;;-0.81;100.00;102453.06;5128696;27;20023;-65
2021/04/12 06:00:33;;;;;;;27.55;12.30;;;;;;;-0.76;100.00;102453.41;5131883;27;20027;-64
2021/04/12 06:03:21;;;;;;;28.25;13.90;;;;;;;-0.74;100.00;102450.16;5131831;27;20106;-64
2021/04/12 06:06:17;;;;;;;28.88;14.38;;;;;;;-0.69;100.00;102460.91;5131608;28;20027;-65
2021/04/12 06:08:58;;;;;;;29.52;14.95;;;;;;;-0.62;100.00;102463.16;5129426;28;20515;-65
2021/04/12 06:11:43;;;;;;;27.98;14.85;;;;;;;-0.55;100.00;102459.34;5130876;28;20500;-65
2021/04/12 06:14:20;;;;;;;30.42;15.68;;;;;;;-0.43;100.00;102460.25;5129791;28;20035;-65
2021/04/12 06:17:08;;;;;;;25.88;12.10;;;;;;;-0.33;100.00;102468.75;5130085;28;20055;-65
2021/04/12 06:20:11;;;;;;;25.92;11.88;;;;;;;-0.22;100.00;102473.97;5130719;28;20130;-65
2021/04/12 06:22:59;;;;;;;25.13;11.88;;;;;;;-0.11;100.00;102472.16;5131014;28;20358;-64
2021/04/12 06:25:43;;;;;;;25.92;12.88;;;;;;;0.03;100.00;102482.66;5131118;28;20485;-64
2021/04/12 06:28:11;;;;;;;27.40;12.85;;;;;;;0.16;100.00;102480.13;5131980;27;20031;-64
2021/04/12 06:31:22;;;;;;;25.15;10.30;;;;;;;0.27;100.00;102483.53;5135049;27;20023;-63
2021/04/12 06:34:25;;;;;;;23.75;9.45;;;;;;;0.42;100.00;102487.22;5134366;27;20476;-63
2021/04/12 06:37:12;;;;;;;23.10;8.95;;;;;;;0.57;100.00;102492.66;5133717;27;20027;-66
2021/04/12 06:39:52;;;;;;;23.05;9.00;;;;;;;0.71;100.00;102490.13;5134866;27;20023;-62
2021/04/12 06:42:54;;;;;;;21.23;7.82;;;;;;;0.82;100.00;102491.78;5134535;27;20045;-64
2021/04/12 06:45:53;;;;;;;20.80;7.53;;;;;;;0.97;98.25;102500.66;5134282;27;20156;-64
2021/04/12 06:48:40;;;;;;;21.77;8.30;;;;;;;1.09;96.57;102499.69;5133747;27;20068;-64
2021/04/12 06:51:43;;;;;;;21.83;8.68;;;;;;;1.24;95.80;102506.00;5133763;27;20488;-64
2021/04/12 06:54:27;;;;;;;22.92;8.48;;;;;;;1.41;95.60;102509.72;5136642;27;20114;-63
2021/04/12 06:57:09;;;;;;;21.58;8.40;;;;;;;1.61;91.95;102507.59;5134905;27;20557;-64
2021/04/12 07:00:05;;;;;;;21.40;7.80;;;;;;;1.70;90.37;102510.78;5135236;27;20027;-64
2021/04/12 07:03:07;;;;;;;21.48;7.97;;;;;;;1.88;91.63;102517.25;5135431;27;20031;-65
2021/04/12 07:05:59;;;;;;;21.08;7.00;;;;;;;1.99;88.09;102522.28;5133668;27;20031;-64
2021/04/12 07:08:43;;;;;;;19.45;6.78;;;;;;;2.07;88.40;102524.59;5133434;27;20478;-65
2021/04/12 07:11:42;;;;;;;20.27;6.38;;;;;;;2.18;88.62;102530.50;5127326;27;20035;-66
2021/04/12 07:14:55;;;;;;;19.90;5.20;;;;;;;2.35;85.36;102534.22;5133493;27;20072;-66
2021/04/12 07:17:45;;;;;;;18.90;5.30;;;;;;;2.51;81.50;102530.88;5133304;27;20039;-64
2021/04/12 07:20:27;;;;;;;17.58;5.03;;;;;;;2.82;82.03;102547.59;5133043;27;20031;-66
2021/04/12 07:23:07;;;;;;;17.75;4.95;;;;;;;2.95;80.11;102551.06;5135140;27;20418;-66
2021/04/12 07:25:47;;;;;;;19.77;5.60;;;;;;;2.90;80.14;102552.50;5131294;27;20350;-65
2021/04/12 07:28:46;;;;;;;19.40;5.65;;;;;;;2.95;80.34;102547.56;5131724;27;20038;-66
2021/04/12 07:31:23;;;;;;;18.95;5.88;;;;;;;2.97;81.20;102553.78;5134326;27;20035;-66
2021/04/12 07:33:54;;;;;;;19.15;6.00;;;;;;;2.92;80.82;102557.81;5133321;27;20030;-66
2021/04/12 07:36:29;;;;;;;19.80;5.93;;;;;;;3.02;80.90;102568.03;5135237;27;20023;-65
2021/04/12 07:39:04;;;;;;;19.60;5.53;;;;;;;3.12;81.79;102559.06;5133816;27;20138;-65
2021/04/12 07:41:53;;;;;;;19.50;5.35;;;;;;;3.37;80.47;102556.25;5133504;27;20035;-65
2021/04/12 07:45:01;;;;;;;21.25;5.47;;;;;;;3.62;78.42;102560.34;5130446;27;20027;-66
2021/04/12 07:47:57;;;;;;;19.20;4.68;;;;;;;4.16;77.01;102563.50;5090087;28;20430;-65
2021/04/12 07:50:41;;;;;;;17.48;4.57;;;;;;;4.63;72.07;102556.56;5089719;28;20036;-65
2021/04/12 07:53:24;;;;;;;16.77;4.50;;;;;;;4.44;72.86;102567.72;5090691;28;20035;-64
2021/04/12 07:56:05;;;;;;;17.80;4.35;;;;;;;4.22;70.17;102576.06;5089782;28;20107;-65
2021/04/12 07:58:52;;;;;;;19.48;4.78;;;;;;;4.00;72.87;102575.72;5091341;28;20036;-65
2021/04/12 08:01:58;;;;;;;17.35;4.40;;;;;;;3.96;71.46;102585.91;5090704;28;20032;-64
2021/04/12 08:05:01;;;;;;;17.08;3.80;;;;;;;4.01;69.57;102584.47;5010699;28;20034;-65
2021/04/12 08:08:04;;;;;;;15.00;3.80;;;;;;;3.76;70.80;102592.59;5016704;28;20034;-65
2021/04/12 08:10:51;;;;;;;19.17;5.40;;;;;;;3.43;71.87;102608.03;5010357;28;20038;-64
2021/04/12 08:13:46;;;;;;;20.15;5.07;;;;;;;3.32;73.21;102609.97;5011024;28;20044;-64
2021/04/12 08:16:59;;;;;;;22.80;8.63;;;;;;;2.55;76.70;102618.13;5011545;28;20037;-66
2021/04/12 08:19:24;;;;;;;23.05;9.18;;;;;;;2.40;77.98;102616.34;4957729;28;20110;-65
2021/04/12 08:22:37;;;;;;;19.20;6.13;;;;;;;2.59;77.49;102622.75;4956850;28;20376;-64
2021/04/12 08:25:38;;;;;;;20.27;6.28;;;;;;;2.77;75.74;102617.84;4922852;29;20380;-65
2021/04/12 08:28:49;;;;;;;16.67;3.78;;;;;;;2.91;75.91;102631.78;4931401;29;20130;-65
2021/04/12 08:31:39;;;;;;;15.00;3.30;;;;;;;2.64;77.22;102631.81;4929173;29;20036;-65
2021/04/12 08:34:26;;;;;;;14.15;3.28;;;;;;;2.76;76.83;102624.75;4926264;29;20047;-66
2021/04/12 08:37:13;;;;;;;10.95;2.95;;;;;;;2.95;75.63;102639.91;4931176;29;20468;-65
2021/04/12 08:39:56;;;;;;;11.38;2.97;;;;;;;2.76;76.51;102637.81;4932712;29;20442;-65
2021/04/12 08:43:03;;;;;;;6.18;2.28;;;;;;;2.87;76.06;102645.44;4956253;28;20035;-65
2021/04/12 08:45:41;;;;;;;13.63;3.15;;;;;;;2.96;77.83;102646.06;4960754;28;20038;-65
2021/04/12 08:48:22;;;;;;;11.75;3.30;;;;;;;3.19;76.79;102650.13;4957952;28;20072;-65
2021/04/12 08:51:08;;;;;;;11.80;2.92;;;;;;;3.47;76.58;102650.13;4953063;28;20045;-67
2021/04/12 08:53:36;;;;;;;12.88;3.20;;;;;;;3.80;75.12;102647.81;4957635;28;20046;-66
2021/04/12 08:56:29;;;;;;;6.88;2.50;;;;;;;3.98;74.15;102640.16;5003511;28;20423;-64
2021/04/12 08:59:29;;;;;;;11.52;3.33;;;;;;;4.15;72.88;102637.63;5044594;28;20049;-63
2021/04/12 09:02:24;;;;;;;9.25;3.15;;;;;;;4.29;72.72;102635.81;5103483;27;20042;-64
2021/04/12 09:05:20;;;;;;;11.50;2.95;;;;;;;4.42;72.49;102637.44;5131272;27;20355;-64
2021/04/12 09:07:53;;;;;;;10.30;3.10;;;;;;;4.42;70.69;102635.72;5132737;27;20063;-64
2021/04/12 09:10:46;;;;;;;9.20;3.10;;;;;;;5.19;71.93;102640.06;5130921;27;20111;-64
2021/04/12 09:13:30;;;;;;;12.30;3.33;;;;;;;6.34;67.71;102635.56;5128820;27;20034;-64
2021/04/12 09:16:05;;;;;;;9.65;3.05;;;;;;;7.43;63.11;102637.28;5131718;27;20031;-64
2021/04/12 09:18:44;;;;;;;10.68;3.05;;;;;;;8.49;63.19;102638.38;5132180;27;20023;-64
2021/04/12 09:21:35;;;;;;;7.97;2.70;;;;;;;9.42;59.75;102634.97;5129679;27;20030;-64
2021/04/12 09:24:12;;;;;;;9.30;2.97;;;;;;;9.73;55.18;102642.31;5132320;27;20493;-64
2021/04/12 09:26:50;;;;;;;11.73;2.90;;;;;;;9.29;57.14;102635.38;5132769;27;20023;-64
2021/04/12 09:29:39;;;;;;;11.85;3.30;;;;;;;8.70;58.04;102633.09;5132196;27;20034;-64
2021/04/12 09:32:28;;;;;;;9.77;2.80;;;;;;;8.14;62.64;102640.38;5132772;27;20046;-64
2021/04/12 09:35:32;;;;;;;10.30;2.97;;;;;;;8.21;56.68;102631.91;5131339;27;20466;-64
2021/04/12 09:38:28;;;;;;;9.07;3.00;;;;;;;8.63;58.53;102631.91;5049112;28;20129;-65
2021/04/12 09:41:20;;;;;;;12.45;3.03;;;;;;;9.22;55.11;102629.88;5051903;28;20045;-64
2021/04/12 09:44:20;;;;;;;10.52;3.10;;;;;;;9.25;54.36;102629.09;5046650;28;20480;-65
2021/04/12 09:47:16;;;;;;;13.68;3.15;;;;;;;9.10;49.88;102639.03;5051620;28;20487;-64
2021/04/12 09:50:06;;;;;;;11.15;2.95;;;;;;;9.39;52.73;102632.22;5056857;28;20044;-64
2021/04/12 09:52:52;;;;;;;12.32;3.30;;;;;;;10.20;49.98;102651.88;5050438;28;20040;-63
2021/04/12 09:55:45;;;;;;;10.32;3.15;;;;;;;11.23;48.82;102651.72;5032041;28;20041;-64
2021/04/12 09:58:10;;;;;;;;;;;;;;;11.68;47.57;102648.63;5048443;28;20502;-64
2021/04/12 10:00:55;;;;;;;10.00;3.20;;;;;;;10.83;45.82;102667.22;5051563;28;19917;-64
2021/04/12 10:03:38;;;;;;;10.00;3.00;;;;;;;9.29;51.03;102662.69;5048711;28;20053;-64
2021/04/12 10:06:35;;;;;;;6.70;2.65;;;;;;;8.47;53.15;102667.28;5050492;28;20507;-64
2021/04/12 10:09:23;;;;;;;12.00;3.40;;;;;;;6.52;58.42;102678.50;5047161;28;20043;-64
2021/04/12 10:12:14;;;;;;;12.10;3.50;;;;;;;6.00;61.02;102686.34;5084685;28;20035;-63
2021/04/12 10:14:46;;;;;;;12.27;3.67;;;;;;;4.66;64.84;102698.19;5130689;28;20020;-64
2021/04/12 10:17:18;;;;;;;15.95;4.30;;;;;;;3.47;70.58;102701.53;5131939;28;20031;-64
2021/04/12 10:19:49;;;;;;;16.80;4.50;;;;;;;3.00;73.61;102699.41;5129598;28;20025;-64
2021/04/12 10:22:19;;;;;;;15.60;4.30;;;;;;;2.79;78.08;102700.69;5131886;28;20405;-64
2021/04/12 10:24:47;;;;;;;17.50;5.03;;;;;;;2.70;80.26;102710.56;5132050;27;20042;-64
2021/04/12 10:27:21;;;;;;;13.75;3.90;;;;;;;2.77;77.16;102699.72;5132206;28;20046;-64
2021/04/12 10:29:53;;;;;;;13.30;4.07;;;;;;;2.43;78.82;102701.78;5131445;28;20035;-64
2021/04/12 10:32:26;;;;;;;15.38;4.10;;;;;;;2.31;79.89;102708.78;5131789;28;20031;-64
2021/04/12 10:35:09;;;;;;;15.13;4.30;;;;;;;2.28;79.02;102713.81;5131228;27;20020;-64
2021/04/12 10:37:43;;;;;;;16.02;4.25;;;;;;;2.14;80.92;102702.41;5129887;28;20043;-64
2021/04/12 10:40:21;;;;;;;17.17;4.65;;;;;;;2.16;81.68;102706.94;5131659;27;20080;-64
2021/04/12 10:43:06;;;;;;;17.80;4.60;;;;;;;2.25;81.18;102693.63;5130513;27;20070;-64
2021/04/12 10:45:42;;;;;;;17.02;4.43;;;;;;;2.68;78.32;102686.06;5131860;27;20359;-64
2021/04/12 10:48:52;;;;;;;16.85;4.50;;;;;;;3.26;77.15;102693.22;5131279;27;20372;-64
2021/04/12 10:51:36;;;;;;;16.80;4.60;;;;;;;4.04;73.95;102698.91;5042131;28;20045;-64
2021/04/12 10:54:22;;;;;;;17.95;4.85;;;;;;;4.22;71.31;102693.88;5042410;28;20041;-64
2021/04/12 10:57:11;;;;;;;16.00;4.40;;;;;;;4.16;70.84;102692.69;4969762;28;20525;-64
2021/04/12 10:59:51;;;;;;;17.65;5.00;;;;;;;3.78;72.37;102696.50;4969863;28;20054;-64
2021/04/12 11:02:21;;;;;;;16.17;4.22;;;;;;;3.67;72.47;102705.41;4969337;28;20034;-64
2021/04/12 11:05:04;;;;;;;17.63;4.15;;;;;;;3.62;73.89;102705.09;4969655;28;20039;-64
2021/04/12 11:07:52;;;;;;;16.30;4.50;;;;;;;3.62;73.29;102692.03;4969472;28;20126;-64
2021/04/12 11:10:23;;;;;;;17.05;4.70;;;;;;;3.80;72.13;102697.50;4969612;28;20514;-64
2021/04/12 11:13:27;;;;;;;17.67;4.75;;;;;;;4.79;71.30;102699.81;4969342;28;20063;-64
2021/04/12 11:16:17;;;;;;;15.70;4.53;;;;;;;7.02;63.44;102696.69;4971677;28;20522;-64
2021/04/12 11:19:04;;;;;;;15.57;3.95;;;;;;;9.03;58.36;102698.59;4972818;28;20035;-64
2021/04/12 11:21:39;;;;;;;14.85;4.07;;;;;;;10.48;53.28;102696.03;4972731;28;20039;-64
2021/04/12 11:24:23;;;;;;;16.63;4.72;;;;;;;11.82;46.50;102704.63;4972678;28;20564;-64
2021/04/12 11:27:07;;;;;;;15.63;4.20;;;;;;;12.84;45.61;102697.66;4980266;28;20035;-64
2021/04/12 11:29:36;;;;;;;12.77;4.18;;;;;;;13.33;44.09;102694.34;5070480;28;20033;-64
2021/04/12 11:32:40;;;;;;;15.13;4.00;;;;;;;13.90;44.61;102698.25;5071702;28;20486;-64
2021/04/12 11:35:17;;;;;;;13.32;3.95;;;;;;;13.71;43.99;102691.66;5132555;27;20134;-64
2021/04/12 11:38:17;;;;;;;15.73;4.80;;;;;;;13.85;41.61;102690.16;5134725;27;20039;-64
2021/04/12 11:40:59;;;;;;;16.35;4.50;;;;;;;13.85;43.83;102689.25;5130538;27;20119;-65
2021/04/12 11:43:37;;;;;;;15.57;4.80;;;;;;;12.85;45.18;102686.16;5133017;27;20045;-64
2021/04/12 11:46:03;;;;;;;15.05;4.80;;;;;;;13.40;42.31;102696.31;5133689;27;20488;-64
2021/04/12 11:48:36;;;;;;;14.27;4.50;;;;;;;13.16;43.38;102691.31;5134973;27;20027;-64
2021/04/12 11:51:12;;;;;;;15.75;5.15;;;;;;;11.91;43.79;102689.00;5132022;27;20034;-64
2021/04/12 11:53:55;;;;;;;16.65;5.20;;;;;;;10.03;47.85;102697.13;5133814;27;20021;-64
2021/04/12 11:56:20;;;;;;;;;;;;;;;10.54;48.55;102698.91;5133589;27;20076;-64
2021/04/12 11:58:55;;;;;;;17.70;5.30;;;;;;;10.06;49.31;102702.50;5134496;27;19915;-64
2021/04/12 12:01:31;;;;;;;17.83;5.50;;;;;;;11.01;45.93;102697.75;5133265;27;20052;-64
2021/04/12 12:04:10;;;;;;;17.70;5.50;;;;;;;10.93;48.17;102692.22;5132654;27;20474;-64
2021/04/12 12:07:16;;;;;;;16.23;5.40;;;;;;;10.85;48.67;102694.63;5129920;27;21058;-64
2021/04/12 12:09:52;;;;;;;17.42;5.55;;;;;;;12.12;45.46;102691.38;5133545;27;20054;-64
2021/04/12 12:12:59;;;;;;;18.80;5.80;;;;;;;12.84;43.07;102686.13;5127850;27;20592;-64
2021/04/12 12:15:46;;;;;;;17.85;5.47;;;;;;;14.15;40.32;102696.06;5129788;27;20474;-63
2021/04/12 12:18:23;;;;;;;15.77;5.00;;;;;;;15.38;37.99;102700.75;5130333;27;20035;-64
2021/04/12 12:21:23;;;;;;;17.92;5.70;;;;;;;15.05;38.03;102696.72;5129748;27;20423;-64
2021/04/12 12:23:59;;;;;;;17.85;5.60;;;;;;;13.62;38.59;102694.13;5132626;27;20393;-64
2021/04/12 12:26:34;;;;;;;16.60;5.28;;;;;;;13.05;37.84;102697.25;5130400;27;20378;-64
2021/04/12 12:29:06;;;;;;;17.08;4.68;;;;;;;11.74;39.25;102703.53;5133160;27;20027;-64
2021/04/12 12:31:39;;;;;;;16.25;5.50;;;;;;;10.35;39.56;102700.00;5132189;27;20079;-64
2021/04/12 12:34:27;;;;;;;;;;;;;;;10.58;41.53;102703.44;5134497;27;20492;-64
2021/04/12 12:36:58;;;;;;;18.67;5.60;;;;;;;10.49;42.68;102699.59;5132457;27;19939;-64
2021/04/12 12:39:26;;;;;;;16.73;5.55;;;;;;;10.17;42.07;102710.81;5133252;27;20027;-64
2021/04/12 12:41:52;;;;;;;17.65;5.60;;;;;;;10.02;43.17;102705.88;5130660;27;20035;-64
2021/04/12 12:44:23;;;;;;;16.30;5.40;;;;;;;10.34;39.63;102702.59;5132943;27;20043;-64